Pagrindinis puslapis
METAR-TAF:

METAR-TAF

Oro uostai :

Korumba, Pietų Mato Grosas, Brazilija

platuma: 19-05S, ilguma: 057-30W, Aukštis: 130 m

Dabartinis oras

Ataskaita buvo paskelbta 2 valandos ir 6 minutes, ne 21:00 UTC
Vėjas 10 kt iš Rytų/Šiaurės Rytų
Temperatūra 35°C
Drėgmė 47%
Slėgis 1006 hPa
Matomumas: 3000 m
Mažai debesys ne aukštis 2500 ft
dūmai

METAR: SBCR 162100Z 06010KT 3000 FU FEW025 35/22 Q1006

Laikas: 19:06 (23:06 UTC)

Prognozė

Ataskaita buvo paskelbta 7 valandos ir 6 minutes, ne 16:00 UTC
Prognozė galioja nuo 16 metu 18 UTC su 17 metu 18 UTC
Vėjas 8 kt iš Šiaurės Rytų
Matomumas: 5000 m
dūmai
Tikimybė 40%
nuo 17 metu 09 UTC su 17 metu 14 UTC
Matomumas: 3000 m
dūmai

TAF: SBCR 161600Z 1618/1718 05008KT 5000 FU NSC TX36/1618Z TN19/1708Z PROB40 1709/1714 3000 FU RMK PDU

Orai ataskaitas ir orų prognozės (METAR, TAF).

turimą stotys yra geltonos ir raudonos taškus žemėlapyje.

Perkelti pele per norėdami pamatyti stoties vardą.

Tada spustelėkite, norėdami matyti oro stebėjimo ir prognozės.

Norėdami pakeisti žemėlapį: spustelėkite ant žalios mygtukų su juodo kryžiaus žemyn,; žalią mygtuką su brūkšneliu, jei norite nutolinti; arba žalių rodyklių gretimoms žemėlapius.


METAR-TAF: